createdAt,value
2022-09-06T00:00:08.955Z,101335.63
2022-09-06T00:05:14.005Z,101321.59
2022-09-06T00:10:16.064Z,101319.09
2022-09-06T00:15:17.722Z,101323.56
2022-09-06T00:20:19.406Z,101320.94
2022-09-06T00:25:21.068Z,101320.16
2022-09-06T00:30:23.230Z,101318.47
2022-09-06T00:35:25.362Z,101307.97
2022-09-06T00:40:29.393Z,101314.22
2022-09-06T00:45:31.088Z,101315.25
2022-09-06T00:50:32.818Z,101324.97
2022-09-06T00:55:34.664Z,101333.84
2022-09-06T01:00:36.550Z,101333.81
2022-09-06T01:05:54.686Z,101322.34
2022-09-06T01:11:03.625Z,101316.19
2022-09-06T01:16:11.836Z,101303.84
2022-09-06T01:21:49.273Z,101309.25
2022-09-06T01:27:12.491Z,101305.75
2022-09-06T01:32:40.111Z,101309.41
2022-09-06T01:37:41.780Z,101305.94
2022-09-06T01:42:43.431Z,101301.59
2022-09-06T01:47:56.887Z,101301.66
2022-09-06T01:53:22.581Z,101291.16
2022-09-06T01:58:35.188Z,101292.97
2022-09-06T02:03:41.210Z,101293.00
2022-09-06T02:08:44.996Z,101291.34
2022-09-06T02:13:50.658Z,101287.88
2022-09-06T02:19:15.372Z,101296.69
2022-09-06T02:24:20.033Z,101289.66
2022-09-06T02:29:21.779Z,101296.69
2022-09-06T02:34:23.454Z,101291.47
2022-09-06T02:39:25.197Z,101294.19
2022-09-06T02:44:26.975Z,101286.28
2022-09-06T02:49:28.805Z,101287.22
2022-09-06T02:54:31.193Z,101291.72
2022-09-06T02:59:32.896Z,101292.66
2022-09-06T03:04:34.572Z,101302.38
2022-09-06T03:09:36.216Z,101288.28
2022-09-06T03:14:37.885Z,101283.06
2022-09-06T03:19:39.558Z,101273.38
2022-09-06T03:24:41.227Z,101269.94
2022-09-06T03:29:42.899Z,101262.09
2022-09-06T03:34:44.575Z,101250.66
2022-09-06T03:39:46.278Z,101253.38
2022-09-06T03:44:48.021Z,101260.47
2022-09-06T03:49:49.708Z,101256.13
2022-09-06T03:54:51.415Z,101256.16
2022-09-06T03:59:53.071Z,101256.16
2022-09-06T04:04:55.578Z,101250.00
2022-09-06T04:09:57.269Z,101257.09
2022-09-06T04:14:58.937Z,101256.16
2022-09-06T04:20:00.623Z,101250.03
2022-09-06T04:25:03.065Z,101241.31
2022-09-06T04:30:05.158Z,101245.69
2022-09-06T04:35:07.203Z,101255.38
2022-09-06T04:40:09.598Z,101247.47
2022-09-06T04:45:11.345Z,101245.69
2022-09-06T04:50:13.088Z,101255.41
2022-09-06T04:55:14.837Z,101257.22
2022-09-06T05:00:16.588Z,101250.19
2022-09-06T05:05:18.244Z,101259.88
2022-09-06T05:10:19.971Z,101263.44
2022-09-06T05:15:22.094Z,101258.22
2022-09-06T05:20:23.773Z,101263.53
2022-09-06T05:25:25.516Z,101256.56
2022-09-06T05:30:27.229Z,101256.50
2022-09-06T05:35:28.912Z,101259.13
2022-09-06T05:40:30.607Z,101255.63
2022-09-06T05:45:32.308Z,101258.25
2022-09-06T05:50:34.031Z,101255.66
2022-09-06T05:55:37.498Z,101260.00
2022-09-06T06:00:40.757Z,101254.75
2022-09-06T06:05:47.074Z,101256.50
2022-09-06T06:10:48.787Z,101263.50
2022-09-06T06:15:50.454Z,101260.78
2022-09-06T06:20:52.129Z,101251.88
2022-09-06T06:25:54.238Z,101251.81
2022-09-06T06:30:55.934Z,101251.84
2022-09-06T06:36:05.225Z,101247.34
2022-09-06T06:41:08.432Z,101249.84
2022-09-06T06:46:15.125Z,101239.97
2022-09-06T06:51:18.675Z,101243.47
2022-09-06T06:56:27.071Z,101244.28
2022-09-06T07:01:30.069Z,101245.13
2022-09-06T07:11:53.949Z,101247.69
2022-09-06T07:16:58.571Z,101237.09
2022-09-06T07:22:04.396Z,101242.25
2022-09-06T07:32:31.019Z,101236.75
2022-09-06T07:37:32.650Z,101239.28
2022-09-06T07:42:36.640Z,101247.13
2022-09-06T07:58:13.557Z,101261.06
2022-09-06T08:03:15.227Z,101268.88
2022-09-06T08:13:38.628Z,101291.69
2022-09-06T08:18:40.312Z,101297.59
2022-09-06T08:23:45.722Z,101302.72
2022-09-06T08:28:47.421Z,101295.53
2022-09-06T08:33:49.069Z,101308.59
2022-09-06T08:38:50.726Z,101312.09
2022-09-06T08:49:52.906Z,101312.09
2022-09-06T08:55:22.054Z,101318.25
2022-09-06T09:00:23.797Z,101315.41
2022-09-06T09:05:30.485Z,101321.34
2022-09-06T09:10:54.781Z,101311.47
2022-09-06T09:15:56.480Z,101305.47
2022-09-06T09:20:58.617Z,101298.41
2022-09-06T09:26:18.889Z,101273.81
2022-09-06T09:31:33.164Z,101263.31
2022-09-06T09:36:34.976Z,101245.66
2022-09-06T09:41:38.390Z,101258.97
2022-09-06T09:46:40.173Z,101247.38
2022-09-06T09:51:43.170Z,101224.47
2022-09-06T09:56:52.425Z,101212.09
2022-09-06T10:01:56.181Z,101202.94
2022-09-06T10:07:17.775Z,101198.94
2022-09-06T10:12:29.255Z,101196.75
2022-09-06T10:17:49.278Z,101196.25
2022-09-06T10:23:06.519Z,101186.03
2022-09-06T10:28:28.202Z,101183.00
2022-09-06T10:33:52.463Z,101182.63
2022-09-06T10:38:59.301Z,101180.34
2022-09-06T10:44:32.243Z,101178.81
2022-09-06T10:49:33.921Z,101171.00
2022-09-06T10:54:36.352Z,101171.09
2022-09-06T10:59:51.523Z,101156.53
2022-09-06T11:10:27.157Z,101155.34
2022-09-06T11:15:31.212Z,101163.59
2022-09-06T11:20:39.190Z,101169.19
2022-09-06T11:26:14.821Z,101156.09
2022-09-06T11:37:07.066Z,101155.19
2022-09-06T11:42:09.880Z,101147.44
2022-09-06T11:47:11.552Z,101138.78
2022-09-06T11:53:09.084Z,101140.09
2022-09-06T11:58:21.223Z,101141.56
2022-09-06T12:09:11.724Z,101140.06
2022-09-06T12:14:31.760Z,101137.25
2022-09-06T12:19:43.889Z,101130.38
2022-09-06T12:24:45.932Z,101116.41
2022-09-06T12:29:58.416Z,101116.19
2022-09-06T12:40:22.980Z,101078.75
2022-09-06T12:45:27.436Z,101069.28
2022-09-06T12:50:31.464Z,101076.22
2022-09-06T12:55:37.041Z,101073.75
2022-09-06T13:00:44.263Z,101071.56
2022-09-06T13:05:45.927Z,101065.19
2022-09-06T13:10:47.641Z,101059.97
2022-09-06T13:15:49.413Z,101057.56
2022-09-06T13:21:14.105Z,101051.28
2022-09-06T13:26:15.821Z,101038.44
2022-09-06T13:31:17.462Z,101031.03
2022-09-06T13:36:22.166Z,101035.53
2022-09-06T13:41:26.471Z,101019.69
2022-09-06T13:46:28.181Z,101011.41
2022-09-06T13:51:29.851Z,101013.38
2022-09-06T13:56:31.689Z,101012.50
2022-09-06T14:01:33.628Z,100994.25
2022-09-06T14:06:36.900Z,100992.94
2022-09-06T14:11:39.174Z,100989.69
2022-09-06T14:16:40.866Z,100989.59
2022-09-06T14:21:43.268Z,100979.81
2022-09-06T14:26:44.934Z,100978.31
2022-09-06T14:31:48.325Z,100975.69
2022-09-06T14:36:50.092Z,100972.16
2022-09-06T14:41:52.094Z,100976.72
2022-09-06T14:46:54.523Z,100978.91
2022-09-06T14:51:56.165Z,100973.44
2022-09-06T14:56:57.839Z,100963.78
2022-09-06T15:01:59.537Z,100963.28
2022-09-06T15:07:01.266Z,100960.41
2022-09-06T15:12:03.166Z,100961.75
2022-09-06T15:17:08.738Z,100957.72
2022-09-06T15:22:10.392Z,100964.81
2022-09-06T15:27:12.143Z,100962.69
2022-09-06T15:32:13.823Z,100949.31
2022-09-06T15:37:15.505Z,100957.19
2022-09-06T15:42:17.164Z,100951.59
2022-09-06T15:47:18.832Z,100947.97
2022-09-06T15:52:20.570Z,100943.88
2022-09-06T15:57:22.259Z,100938.59
2022-09-06T16:02:23.975Z,100941.31
2022-09-06T16:07:25.826Z,100932.59
2022-09-06T16:12:27.524Z,100926.88
2022-09-06T16:17:31.138Z,100921.06
2022-09-06T16:22:32.966Z,100921.59
2022-09-06T16:27:34.669Z,100924.69
2022-09-06T16:32:36.346Z,100919.13
2022-09-06T16:37:38.030Z,100912.72
2022-09-06T16:42:39.702Z,100904.38
2022-09-06T16:47:41.576Z,100895.94
2022-09-06T16:52:43.249Z,100889.22
2022-09-06T16:57:44.924Z,100892.44
2022-09-06T17:02:47.736Z,100893.25
2022-09-06T17:07:49.663Z,100897.41
2022-09-06T17:12:51.329Z,100887.75
2022-09-06T17:17:52.992Z,100892.38
2022-09-06T17:22:54.714Z,100890.34
2022-09-06T17:27:57.987Z,100889.06
2022-09-06T17:32:59.679Z,100878.91
2022-09-06T17:38:01.416Z,100889.56
2022-09-06T17:43:05.011Z,100882.16
2022-09-06T17:48:06.757Z,100900.25
2022-09-06T17:53:08.444Z,100910.13
2022-09-06T17:58:10.120Z,100915.50
2022-09-06T18:03:11.785Z,100920.84
2022-09-06T18:08:13.456Z,100916.56
2022-09-06T18:13:15.130Z,100928.03
2022-09-06T18:18:18.037Z,100919.91
2022-09-06T18:23:20.067Z,100931.53
2022-09-06T18:28:21.737Z,100927.00
2022-09-06T18:33:23.778Z,100936.56
2022-09-06T18:38:25.571Z,100937.16
2022-09-06T18:43:31.553Z,100936.94
2022-09-06T18:48:33.708Z,100939.31
2022-09-06T18:53:36.075Z,100940.69
2022-09-06T18:58:37.818Z,100940.38
2022-09-06T19:03:39.766Z,100947.75
2022-09-06T19:08:41.767Z,100951.84
2022-09-06T19:13:44.341Z,100953.97
2022-09-06T19:18:46.117Z,100942.78
2022-09-06T19:23:53.906Z,100936.94
2022-09-06T19:28:57.820Z,100940.72
2022-09-06T19:33:59.527Z,100938.56
2022-09-06T19:39:05.126Z,100931.69
2022-09-06T19:44:08.965Z,100931.00
2022-09-06T19:49:10.911Z,100927.75
2022-09-06T19:54:12.682Z,100918.31
2022-09-06T19:59:14.780Z,100906.22
2022-09-06T20:04:16.497Z,100911.81
2022-09-06T20:09:18.325Z,100912.06
2022-09-06T20:14:20.016Z,100905.19
2022-09-06T20:19:21.718Z,100907.25
2022-09-06T20:24:23.443Z,100907.47
2022-09-06T20:29:25.116Z,100903.16
2022-09-06T20:34:26.800Z,100898.91
2022-09-06T20:39:29.008Z,100897.28
2022-09-06T20:44:30.965Z,100895.72
2022-09-06T20:49:32.636Z,100888.81
2022-09-06T20:54:34.304Z,100883.69
2022-09-06T20:59:35.976Z,100867.91
2022-09-06T21:04:37.693Z,100865.44
2022-09-06T21:09:39.367Z,100864.72
2022-09-06T21:14:41.023Z,100865.75
2022-09-06T21:19:42.839Z,100862.41
2022-09-06T21:24:44.898Z,100859.00
2022-09-06T21:29:47.012Z,100857.38
2022-09-06T21:34:48.679Z,100863.69
2022-09-06T21:39:50.366Z,100849.69
2022-09-06T21:44:52.040Z,100857.78
2022-09-06T21:49:53.784Z,100851.69
2022-09-06T21:54:55.441Z,100850.06
2022-09-06T21:59:57.107Z,100857.25
2022-09-06T22:04:58.783Z,100867.88
2022-09-06T22:10:00.439Z,100868.91
2022-09-06T22:15:02.098Z,100865.41
2022-09-06T22:20:08.402Z,100869.81
2022-09-06T22:25:10.081Z,100862.00
2022-09-06T22:30:12.122Z,100858.53
2022-09-06T22:35:13.967Z,100850.72
2022-09-06T22:40:15.663Z,100841.09
2022-09-06T22:45:17.341Z,100840.34
2022-09-06T22:50:19.001Z,100835.19
2022-09-06T22:55:20.678Z,100826.44
2022-09-06T23:00:22.384Z,100830.03
2022-09-06T23:05:24.064Z,100828.34
2022-09-06T23:10:25.753Z,100820.50
2022-09-06T23:15:27.815Z,100815.38
2022-09-06T23:20:29.495Z,100812.84
2022-09-06T23:25:31.188Z,100801.50
2022-09-06T23:30:33.022Z,100804.31
2022-09-06T23:35:34.683Z,100802.59
2022-09-06T23:40:37.354Z,100793.06
2022-09-06T23:45:39.028Z,100787.06
2022-09-06T23:50:40.735Z,100777.50
2022-09-06T23:55:42.471Z,100774.00
